Time;durP1;ratioP1;P1;durP2;ratioP2;P2;SDS_P1;SDS_P2;PMS_P1;PMS_P2;Temp;Humidity;BMP_temperature;BMP_pressure;BME280_temperature;BME280_humidity;BME280_pressure;Samples;Min_cycle;Max_cycle;Signal;HPM_P1;HPM_P2
2022/11/26 00:02:30;;;;;;;5.65;2.80;;;;;;;19.11;44.60;102503.88;4985903;28;20034;-70
2022/11/26 00:04:57;;;;;;;7.00;3.17;;;;;;;19.06;44.29;102498.00;4986159;28;20050;-72
2022/11/26 00:07:25;;;;;;;6.97;2.85;;;;;;;19.02;44.39;102499.13;4995276;28;20397;-71
2022/11/26 00:09:55;;;;;;;5.90;3.03;;;;;;;19.03;44.23;102504.31;5000565;28;20042;-70
2022/11/26 00:12:25;;;;;;;6.63;3.17;;;;;;;19.02;44.50;102504.41;5004151;28;20104;-71
2022/11/26 00:14:51;;;;;;;6.22;3.15;;;;;;;19.05;44.41;102508.66;4994689;28;20034;-71
2022/11/26 00:17:18;;;;;;;5.88;2.83;;;;;;;18.97;44.54;102502.03;4985008;28;20042;-71
2022/11/26 00:19:44;;;;;;;6.57;3.13;;;;;;;18.99;44.38;102509.88;4986633;28;20112;-72
2022/11/26 00:22:18;;;;;;;6.72;3.08;;;;;;;19.00;43.99;102516.88;4984320;28;20040;-70
2022/11/26 00:24:44;;;;;;;7.65;3.22;;;;;;;18.96;44.16;102512.69;4984588;28;20030;-74
2022/11/26 00:27:10;;;;;;;6.75;3.17;;;;;;;18.99;44.23;102523.09;4996738;28;20030;-70
2022/11/26 00:29:36;;;;;;;7.20;3.00;;;;;;;18.93;43.92;102515.50;5002564;28;20124;-71
2022/11/26 00:32:01;;;;;;;6.43;3.03;;;;;;;18.92;44.21;102517.31;4983761;28;20562;-69
2022/11/26 00:34:26;;;;;;;7.68;3.10;;;;;;;18.92;43.90;102511.19;4992857;28;20104;-71
2022/11/26 00:36:51;;;;;;;5.40;3.03;;;;;;;18.94;44.17;102523.34;4998494;28;20030;-74
2022/11/26 00:39:21;;;;;;;5.97;2.90;;;;;;;18.92;44.08;102513.81;4998389;28;20282;-70
2022/11/26 00:41:49;;;;;;;7.53;3.10;;;;;;;18.88;43.99;102513.13;5003378;28;20087;-70
2022/11/26 00:44:21;;;;;;;5.88;3.05;;;;;;;18.87;43.98;102516.72;5003579;28;20188;-71
2022/11/26 00:46:47;;;;;;;6.03;2.95;;;;;;;18.90;44.09;102521.84;5003452;28;20038;-73
2022/11/26 00:49:13;;;;;;;5.40;2.90;;;;;;;18.88;43.98;102528.16;5003289;28;20057;-72
2022/11/26 00:51:38;;;;;;;8.40;3.28;;;;;;;18.80;44.15;102515.34;5002776;28;20080;-73
2022/11/26 00:54:05;;;;;;;6.45;2.95;;;;;;;18.83;43.65;102523.97;4993678;28;20418;-72
2022/11/26 00:56:31;;;;;;;6.97;3.20;;;;;;;18.84;43.96;102527.47;4986593;28;20037;-70
2022/11/26 00:58:56;;;;;;;6.88;3.20;;;;;;;18.82;43.80;102521.41;4995014;28;20042;-71
2022/11/26 01:01:24;;;;;;;6.45;3.17;;;;;;;18.84;43.82;102535.41;4983415;28;20105;-74
2022/11/26 01:03:50;;;;;;;6.72;3.03;;;;;;;18.80;43.62;102524.13;4984923;28;20039;-75
2022/11/26 01:06:18;;;;;;;6.72;3.03;;;;;;;18.80;43.76;102528.53;4983692;28;20348;-72
2022/11/26 01:08:44;;;;;;;6.53;2.90;;;;;;;18.77;43.68;102531.38;4999238;28;20044;-72
2022/11/26 01:11:14;;;;;;;5.78;2.75;;;;;;;18.77;43.62;102529.59;4985606;28;20036;-71
2022/11/26 01:13:40;;;;;;;7.30;3.20;;;;;;;18.77;43.64;102528.72;4995456;28;20534;-71
2022/11/26 01:16:27;;;;;;;5.78;3.22;;;;;;;18.73;43.75;102514.84;4985341;28;20076;-70
2022/11/26 01:18:55;;;;;;;7.97;3.42;;;;;;;18.74;43.53;102529.78;4983287;28;20387;-71
2022/11/26 01:21:22;;;;;;;5.28;3.00;;;;;;;18.73;43.57;102528.06;4985779;28;20092;-72
2022/11/26 01:23:47;;;;;;;6.85;3.03;;;;;;;18.76;43.66;102532.31;5002517;28;20046;-73
2022/11/26 01:26:21;;;;;;;6.95;3.17;;;;;;;18.73;43.44;102525.41;5002006;28;20063;-71
2022/11/26 01:28:47;;;;;;;5.90;3.20;;;;;;;18.73;43.46;102528.06;4982976;28;20030;-71
2022/11/26 01:31:18;;;;;;;5.97;3.22;;;;;;;18.72;43.57;102522.88;5000698;28;20046;-73
2022/11/26 01:33:44;;;;;;;5.70;3.15;;;;;;;18.70;43.46;102516.81;4994002;28;20030;-71
2022/11/26 01:36:21;;;;;;;6.90;3.05;;;;;;;18.66;43.30;102516.16;4989058;28;20036;-71
2022/11/26 01:38:46;;;;;;;5.68;2.85;;;;;;;18.71;43.37;102526.44;4995709;28;20036;-72
2022/11/26 01:41:18;;;;;;;6.47;2.70;;;;;;;18.66;43.13;102518.81;4988757;28;20038;-74
2022/11/26 01:43:44;;;;;;;7.15;3.35;;;;;;;18.66;43.15;102526.72;4991673;28;20161;-70
2022/11/26 01:46:16;;;;;;;7.53;2.95;;;;;;;18.63;43.29;102525.09;4999364;28;20419;-71
2022/11/26 01:48:42;;;;;;;5.93;3.45;;;;;;;18.66;43.06;102529.38;4984121;28;20084;-72
2022/11/26 01:51:09;;;;;;;6.90;3.05;;;;;;;18.62;43.05;102536.59;4995656;28;20042;-73
2022/11/26 01:53:42;;;;;;;5.45;2.72;;;;;;;18.58;43.05;102543.00;5002121;28;20048;-71
2022/11/26 01:56:29;;;;;;;6.22;3.13;;;;;;;18.63;43.34;102550.66;4992907;28;20045;-72
2022/11/26 01:59:23;;;;;;;5.43;2.78;;;;;;;18.63;42.77;102553.31;4994309;28;20410;-72
2022/11/26 02:01:51;;;;;;;6.90;3.13;;;;;;;18.62;43.18;102547.16;4996309;28;20120;-71
2022/11/26 02:04:22;;;;;;;10.68;3.63;;;;;;;18.59;43.20;102544.69;4994896;28;20290;-71
2022/11/26 02:06:49;;;;;;;7.13;4.13;;;;;;;18.58;42.83;102552.69;4984072;28;20073;-72
2022/11/26 02:09:15;;;;;;;6.53;3.13;;;;;;;18.58;43.10;102550.91;4982438;28;20147;-70
2022/11/26 02:11:41;;;;;;;6.85;3.08;;;;;;;18.58;42.89;102547.41;4988656;28;20034;-71
2022/11/26 02:14:12;;;;;;;6.88;3.20;;;;;;;18.58;42.97;102556.19;4988551;28;20041;-72
2022/11/26 02:16:56;;;;;;;6.30;2.97;;;;;;;18.58;43.05;102558.84;4986701;28;20129;-72
2022/11/26 02:19:38;;;;;;;9.10;3.25;;;;;;;18.59;43.16;102562.31;4991671;28;20042;-72
2022/11/26 02:22:19;;;;;;;7.32;3.20;;;;;;;18.57;43.20;102572.13;4995455;28;20114;-71
2022/11/26 02:24:54;;;;;;;5.20;2.58;;;;;;;18.55;42.93;102566.94;4995436;28;20113;-72
2022/11/26 02:27:34;;;;;;;7.68;3.30;;;;;;;18.58;43.21;102573.81;4989279;28;20029;-73
2022/11/26 02:30:05;;;;;;;7.03;2.92;;;;;;;18.57;43.24;102574.78;5001651;28;20108;-75
2022/11/26 02:32:40;;;;;;;5.32;2.88;;;;;;;18.56;43.15;102568.63;5000987;28;20053;-71
2022/11/26 02:35:15;;;;;;;5.88;3.10;;;;;;;18.56;42.94;102568.63;4986722;28;20030;-72
2022/11/26 02:37:53;;;;;;;6.32;3.30;;;;;;;18.55;43.05;102566.94;4996542;28;20034;-72
2022/11/26 02:40:19;;;;;;;6.22;3.30;;;;;;;18.52;42.83;102558.31;4986662;28;20030;-71
2022/11/26 02:42:47;;;;;;;6.53;3.35;;;;;;;18.51;42.82;102553.97;4986589;28;20038;-73
2022/11/26 02:45:21;;;;;;;7.32;3.50;;;;;;;18.49;43.01;102562.84;4982143;28;20034;-71
2022/11/26 02:47:49;;;;;;;6.65;3.22;;;;;;;18.51;42.71;102559.25;4981643;28;20037;-71
2022/11/26 02:50:29;;;;;;;5.57;2.90;;;;;;;18.51;43.01;102565.38;4986121;28;20045;-71
2022/11/26 02:52:57;;;;;;;6.70;3.35;;;;;;;18.53;42.85;102573.22;5000809;28;20038;-72
2022/11/26 02:55:27;;;;;;;6.85;3.65;;;;;;;18.51;42.45;102575.94;4997844;28;20034;-71
2022/11/26 02:57:53;;;;;;;5.88;2.80;;;;;;;18.50;42.84;102574.25;4988092;28;20061;-72
2022/11/26 03:00:19;;;;;;;6.35;3.38;;;;;;;18.51;42.80;102583.03;4981300;28;20042;-71
2022/11/26 03:03:09;;;;;;;6.85;3.38;;;;;;;18.48;42.50;102579.63;4990705;28;20474;-71
2022/11/26 03:05:36;;;;;;;5.63;2.85;;;;;;;18.46;42.90;102578.00;5001235;28;20030;-73
2022/11/26 03:08:03;;;;;;;7.55;2.88;;;;;;;18.47;42.68;102592.91;4992809;28;20030;-71
2022/11/26 03:10:30;;;;;;;5.95;2.90;;;;;;;18.46;42.80;102597.31;4981420;28;20430;-70
2022/11/26 03:12:55;;;;;;;6.32;2.95;;;;;;;18.45;42.36;102594.75;4981415;28;20732;-72
2022/11/26 03:15:21;;;;;;;5.78;2.75;;;;;;;18.44;42.39;102596.56;4994647;28;20038;-74
2022/11/26 03:17:47;;;;;;;6.72;3.05;;;;;;;18.44;42.28;102598.34;5001149;28;20038;-71
2022/11/26 03:20:13;;;;;;;6.88;3.40;;;;;;;18.43;42.40;102599.28;4985127;28;20422;-71
2022/11/26 03:22:39;;;;;;;6.25;3.05;;;;;;;18.44;42.37;102603.63;4985814;28;20061;-70
2022/11/26 03:25:05;;;;;;;6.25;2.83;;;;;;;18.40;42.52;102602.09;4999681;28;20061;-71
2022/11/26 03:27:30;;;;;;;6.53;3.10;;;;;;;18.42;42.51;102602.84;4983327;28;20416;-72
2022/11/26 03:29:55;;;;;;;5.43;2.80;;;;;;;18.43;42.70;102605.41;4982277;28;20022;-70
2022/11/26 03:32:21;;;;;;;6.60;2.92;;;;;;;18.43;42.37;102609.84;4984792;28;20078;-71
2022/11/26 03:34:46;;;;;;;6.63;3.28;;;;;;;18.40;42.47;102610.84;4993922;28;20048;-71
2022/11/26 03:37:11;;;;;;;7.68;3.03;;;;;;;18.40;42.40;102618.78;4997244;28;20035;-73
2022/11/26 03:39:36;;;;;;;5.80;2.92;;;;;;;18.40;42.34;102613.50;4983363;28;20038;-71
2022/11/26 03:42:02;;;;;;;7.63;3.35;;;;;;;18.37;42.30;102608.38;4993993;28;20326;-71
2022/11/26 03:44:27;;;;;;;7.15;3.08;;;;;;;18.38;41.99;102610.09;5000770;28;20127;-71
2022/11/26 03:46:52;;;;;;;7.18;2.67;;;;;;;18.40;42.41;102607.38;4993222;28;20038;-71
2022/11/26 03:49:18;;;;;;;5.90;2.80;;;;;;;18.40;42.25;102607.38;5007759;28;20034;-72
2022/11/26 03:51:43;;;;;;;7.05;3.50;;;;;;;18.37;42.39;102611.00;4996981;28;20256;-70
2022/11/26 03:54:08;;;;;;;5.93;2.78;;;;;;;18.36;42.19;102617.25;5004957;28;20030;-71
2022/11/26 03:56:34;;;;;;;7.03;2.90;;;;;;;18.34;42.19;102608.56;4995023;28;20038;-70
2022/11/26 03:58:59;;;;;;;6.45;3.20;;;;;;;18.36;42.46;102611.97;4993237;28;20434;-70
2022/11/26 04:01:24;;;;;;;6.30;3.00;;;;;;;18.34;42.12;102611.22;4997499;28;20034;-73
2022/11/26 04:03:50;;;;;;;9.60;3.00;;;;;;;18.36;41.96;102619.91;4999705;28;20046;-71
2022/11/26 04:06:15;;;;;;;6.95;3.00;;;;;;;18.34;42.11;102623.53;4984793;28;20034;-70
2022/11/26 04:08:40;;;;;;;5.60;2.85;;;;;;;18.36;42.08;102630.44;4999563;28;20068;-70
2022/11/26 04:11:06;;;;;;;6.07;2.72;;;;;;;18.33;42.09;102629.78;4985199;28;20054;-71
2022/11/26 04:13:31;;;;;;;6.78;3.20;;;;;;;18.32;41.75;102631.53;4998211;28;20107;-74
2022/11/26 04:15:56;;;;;;;5.97;2.78;;;;;;;18.24;42.10;102624.03;5003550;28;20026;-73
2022/11/26 04:18:22;;;;;;;6.57;2.90;;;;;;;18.31;42.15;102638.63;5004020;28;20466;-72
2022/11/26 04:20:47;;;;;;;6.55;2.83;;;;;;;18.34;41.88;102647.28;5003894;28;20049;-71
2022/11/26 04:23:12;;;;;;;5.35;2.60;;;;;;;18.33;41.83;102646.44;5010864;28;20030;-72
2022/11/26 04:25:37;;;;;;;5.87;2.50;;;;;;;18.29;42.09;102650.19;4984391;28;20161;-73
2022/11/26 04:28:03;;;;;;;6.68;2.95;;;;;;;18.32;41.89;102650.00;4996941;28;20287;-72
2022/11/26 04:30:28;;;;;;;7.68;2.92;;;;;;;18.30;42.13;102641.34;4986451;28;20169;-72
2022/11/26 04:32:54;;;;;;;6.15;2.83;;;;;;;18.27;41.66;102637.06;4984030;28;20137;-71
2022/11/26 04:35:19;;;;;;;6.83;2.70;;;;;;;18.31;41.62;102640.41;4990472;28;20048;-72
2022/11/26 04:37:44;;;;;;;6.00;2.90;;;;;;;18.30;41.92;102642.19;4994983;28;20279;-73
2022/11/26 04:40:10;;;;;;;6.82;3.25;;;;;;;18.28;41.98;102640.56;4996651;28;20035;-72
2022/11/26 04:42:35;;;;;;;5.40;2.63;;;;;;;18.29;41.56;102650.19;4974050;28;20804;-72
2022/11/26 04:45:01;;;;;;;6.47;2.65;;;;;;;18.28;41.91;102644.06;4983714;28;20071;-71
2022/11/26 04:47:26;;;;;;;6.25;2.80;;;;;;;18.26;41.59;102650.34;4985837;28;20030;-71
2022/11/26 04:49:51;;;;;;;4.93;2.65;;;;;;;18.27;41.73;102657.34;4985510;28;20038;-70
2022/11/26 04:52:16;;;;;;;5.50;2.40;;;;;;;18.25;41.81;102648.66;4989935;28;20084;-71
2022/11/26 04:54:42;;;;;;;6.38;2.90;;;;;;;18.23;41.78;102643.47;4988215;28;20029;-75
2022/11/26 04:57:07;;;;;;;6.50;2.60;;;;;;;18.23;41.45;102645.22;5003748;28;20038;-73
2022/11/26 04:59:32;;;;;;;5.07;2.67;;;;;;;18.24;41.51;102652.22;5003036;28;20447;-70
2022/11/26 05:01:58;;;;;;;6.85;2.92;;;;;;;18.22;41.81;102644.38;4998443;28;20114;-72
2022/11/26 05:04:24;;;;;;;4.93;2.30;;;;;;;18.24;41.67;102650.41;4999086;28;20061;-73
2022/11/26 05:06:49;;;;;;;5.57;2.85;;;;;;;18.24;41.64;102654.84;4991553;28;20208;-71
2022/11/26 05:09:15;;;;;;;5.68;2.60;;;;;;;18.15;41.92;102640.38;4984307;28;20387;-72
2022/11/26 05:11:40;;;;;;;6.82;2.90;;;;;;;18.21;41.51;102655.00;5003361;28;20041;-70
2022/11/26 05:14:05;;;;;;;5.57;2.85;;;;;;;18.22;41.78;102657.56;5002775;28;20033;-71
2022/11/26 05:16:31;;;;;;;5.83;2.70;;;;;;;18.20;41.75;102656.81;4991132;28;20428;-71
2022/11/26 05:18:56;;;;;;;6.07;2.40;;;;;;;18.22;41.59;102667.28;4998346;28;20268;-72
2022/11/26 05:21:21;;;;;;;7.95;2.67;;;;;;;18.18;41.46;102660.44;4985637;28;20030;-71
2022/11/26 05:23:46;;;;;;;5.47;2.75;;;;;;;18.19;41.58;102662.16;5002832;28;20136;-72
2022/11/26 05:26:12;;;;;;;7.03;2.88;;;;;;;18.19;41.66;102663.00;4985593;28;20042;-70
2022/11/26 05:28:37;;;;;;;6.40;2.72;;;;;;;18.20;41.40;102661.22;4983266;28;20462;-71
2022/11/26 05:31:03;;;;;;;6.05;2.70;;;;;;;18.18;41.67;102660.44;4994634;28;20036;-71
2022/11/26 05:33:29;;;;;;;6.60;2.35;;;;;;;18.18;41.85;102669.22;4998186;28;20046;-70
2022/11/26 05:35:55;;;;;;;5.38;2.67;;;;;;;18.08;41.66;102657.44;4992593;28;20030;-71
2022/11/26 05:38:20;;;;;;;6.53;2.50;;;;;;;18.15;41.39;102674.69;5001407;28;20890;-71
2022/11/26 05:40:45;;;;;;;6.22;2.67;;;;;;;18.15;41.70;102669.41;4999165;28;20084;-72
2022/11/26 05:43:11;;;;;;;8.48;2.50;;;;;;;18.16;41.50;102675.53;4997032;28;20034;-70
2022/11/26 05:45:37;;;;;;;6.45;2.92;;;;;;;18.17;41.63;102678.09;4992818;28;20046;-70
2022/11/26 05:48:03;;;;;;;7.60;2.63;;;;;;;18.13;41.73;102674.75;4990224;28;20041;-71
2022/11/26 05:50:28;;;;;;;6.07;2.80;;;;;;;18.16;41.47;102676.38;4982862;28;20030;-73
2022/11/26 05:52:53;;;;;;;6.63;2.58;;;;;;;18.17;41.41;102679.88;4983024;28;20031;-72
2022/11/26 05:55:19;;;;;;;7.43;2.88;;;;;;;18.14;41.55;102680.88;4996995;28;20057;-72
2022/11/26 05:57:44;;;;;;;7.03;3.45;;;;;;;18.13;41.50;102681.81;4997404;28;20030;-72
2022/11/26 06:00:10;;;;;;;5.32;2.28;;;;;;;18.17;41.38;102690.44;4976201;28;20580;-72
2022/11/26 06:02:36;;;;;;;6.35;2.50;;;;;;;18.14;41.80;102688.81;4993233;28;20040;-69
2022/11/26 06:05:03;;;;;;;7.53;2.85;;;;;;;18.17;41.85;102696.56;4992193;28;20109;-70
2022/11/26 06:07:28;;;;;;;6.82;2.20;;;;;;;18.20;42.01;102703.44;4989914;28;20022;-70
2022/11/26 06:09:53;;;;;;;6.47;2.38;;;;;;;18.20;42.08;102696.41;4996086;28;20442;-72
2022/11/26 06:12:19;;;;;;;5.88;2.53;;;;;;;18.23;42.29;102709.44;4987800;28;20097;-74
2022/11/26 06:14:44;;;;;;;6.03;2.20;;;;;;;18.25;42.30;102702.28;4987646;28;20033;-72
2022/11/26 06:17:10;;;;;;;4.95;2.17;;;;;;;18.28;42.11;102701.28;4992159;28;20034;-71
2022/11/26 06:19:35;;;;;;;4.18;1.80;;;;;;;18.33;42.20;102704.53;4990743;28;20034;-70
2022/11/26 06:22:00;;;;;;;5.03;2.20;;;;;;;18.38;42.26;102701.63;4990011;28;20069;-70
2022/11/26 06:24:26;;;;;;;6.03;2.00;;;;;;;18.40;42.18;102702.41;4994133;28;20446;-72
2022/11/26 06:26:51;;;;;;;5.22;1.80;;;;;;;18.44;42.07;102696.88;4999499;28;20034;-70
2022/11/26 06:29:16;;;;;;;4.38;2.00;;;;;;;18.45;42.02;102706.50;4996593;28;20096;-70
2022/11/26 06:31:41;;;;;;;4.00;1.83;;;;;;;18.51;42.07;102707.13;4982498;28;20093;-71
2022/11/26 06:34:07;;;;;;;4.88;2.10;;;;;;;18.48;41.71;102695.78;4972266;28;20042;-71
2022/11/26 06:36:32;;;;;;;4.38;2.00;;;;;;;18.54;41.90;102706.94;4988258;28;20034;-72
2022/11/26 06:38:57;;;;;;;4.60;1.75;;;;;;;18.59;41.96;102710.19;4981782;28;20045;-74
2022/11/26 06:41:23;;;;;;;4.70;2.03;;;;;;;18.60;41.83;102704.81;4991333;28;20042;-71
2022/11/26 06:43:48;;;;;;;4.07;1.80;;;;;;;18.63;41.70;102711.75;4990955;28;20096;-71
2022/11/26 06:46:13;;;;;;;4.82;2.00;;;;;;;18.64;41.76;102710.78;4990353;28;20069;-71
2022/11/26 06:48:39;;;;;;;4.97;2.28;;;;;;;18.66;41.65;102712.41;5001197;28;20034;-72
2022/11/26 06:51:14;;;;;;;4.53;2.00;;;;;;;18.71;41.85;102725.38;5008489;28;20030;-71
2022/11/26 06:53:39;;;;;;;5.82;2.20;;;;;;;18.70;41.80;102718.38;4993728;28;20042;-71
2022/11/26 06:56:08;;;;;;;4.20;2.00;;;;;;;18.64;41.45;102710.78;4985817;28;20036;-70
2022/11/26 06:58:34;;;;;;;4.80;1.90;;;;;;;18.74;41.65;102722.56;4989102;28;20030;-73
2022/11/26 07:00:59;;;;;;;5.63;2.03;;;;;;;18.75;41.69;102723.41;5000288;28;20107;-69
2022/11/26 07:03:25;;;;;;;4.63;1.90;;;;;;;18.79;41.67;102732.91;4987920;28;20040;-70
2022/11/26 07:05:51;;;;;;;4.55;1.75;;;;;;;18.77;41.63;102729.47;4997398;28;20041;-73
2022/11/26 07:08:16;;;;;;;6.45;2.35;;;;;;;18.78;41.78;102732.03;4988112;28;20073;-69
2022/11/26 07:10:41;;;;;;;6.20;2.35;;;;;;;18.80;41.57;102734.59;4991709;28;20037;-72
2022/11/26 07:13:07;;;;;;;3.70;1.63;;;;;;;18.82;41.66;102738.00;4995229;28;20070;-72
2022/11/26 07:15:32;;;;;;;4.65;2.00;;;;;;;18.83;41.62;102743.22;4990758;28;20643;-69
2022/11/26 07:17:58;;;;;;;5.67;1.93;;;;;;;18.82;41.43;102748.59;4986066;28;20034;-70
2022/11/26 07:20:24;;;;;;;5.05;1.85;;;;;;;18.81;41.45;102753.00;4994573;28;20306;-70
2022/11/26 07:22:49;;;;;;;6.05;2.00;;;;;;;18.78;41.83;102747.03;4994506;28;20421;-71
2022/11/26 07:25:16;;;;;;;5.80;2.00;;;;;;;18.79;42.04;102754.03;4994710;28;20042;-72
2022/11/26 07:27:42;;;;;;;4.78;1.98;;;;;;;18.76;41.85;102748.91;4972050;28;20268;-71
2022/11/26 07:30:08;;;;;;;6.25;2.10;;;;;;;18.76;41.94;102765.59;4982140;28;20060;-72
2022/11/26 07:32:33;;;;;;;5.35;2.38;;;;;;;18.76;41.72;102762.97;4985241;28;20150;-72
2022/11/26 07:35:00;;;;;;;5.53;2.25;;;;;;;18.77;41.58;102758.53;4997560;28;20030;-72
2022/11/26 07:37:26;;;;;;;4.40;1.90;;;;;;;18.77;41.82;102767.31;5002754;28;20037;-69
2022/11/26 07:39:51;;;;;;;4.55;2.05;;;;;;;18.75;41.69;102761.25;4986068;28;20127;-72
2022/11/26 07:42:16;;;;;;;4.63;2.07;;;;;;;18.75;41.51;102763.03;4997877;28;20474;-72
2022/11/26 07:44:41;;;;;;;5.83;2.27;;;;;;;18.74;41.68;102756.03;4999306;28;20271;-72
2022/11/26 07:47:07;;;;;;;4.70;2.20;;;;;;;18.72;41.59;102755.28;5001328;28;20265;-69
2022/11/26 07:49:32;;;;;;;5.47;2.07;;;;;;;18.77;41.63;102769.09;5000229;28;20080;-69
2022/11/26 07:51:57;;;;;;;4.78;1.83;;;;;;;18.78;42.06;102766.34;4995518;28;20267;-73
2022/11/26 07:54:23;;;;;;;4.85;1.90;;;;;;;18.79;42.19;102768.06;4995284;28;20034;-71
2022/11/26 07:56:48;;;;;;;4.80;1.90;;;;;;;18.80;42.22;102758.34;4996561;28;20044;-70
2022/11/26 07:59:13;;;;;;;4.85;2.00;;;;;;;18.82;42.65;102760.00;4994805;28;20038;-69
2022/11/26 08:01:38;;;;;;;4.68;2.00;;;;;;;18.83;42.49;102758.19;4990854;28;20619;-70
2022/11/26 08:04:05;;;;;;;5.00;1.90;;;;;;;18.82;42.86;102765.28;4993071;28;20053;-70
2022/11/26 08:06:31;;;;;;;4.05;1.83;;;;;;;18.82;42.80;102762.63;4990722;28;20276;-70
2022/11/26 08:09:01;;;;;;;6.25;2.15;;;;;;;18.85;42.88;102767.78;4988834;28;20042;-72
2022/11/26 08:11:28;;;;;;;6.30;2.30;;;;;;;18.84;43.33;102766.06;4992565;28;20035;-71
2022/11/26 08:13:59;;;;;;;5.50;1.85;;;;;;;18.83;42.85;102760.84;4999605;28;20030;-69
2022/11/26 08:16:25;;;;;;;5.13;2.20;;;;;;;18.91;43.19;102771.03;4999937;28;20041;-70
2022/11/26 08:18:55;;;;;;;4.75;2.28;;;;;;;18.91;43.41;102771.88;4999308;28;20038;-69
2022/11/26 08:21:21;;;;;;;6.43;2.05;;;;;;;18.93;43.25;102772.66;4993462;28;20075;-71
2022/11/26 08:23:47;;;;;;;5.38;2.00;;;;;;;18.91;43.25;102761.28;4992728;28;20168;-71
2022/11/26 08:26:14;;;;;;;5.25;2.22;;;;;;;18.94;43.24;102771.69;4999648;28;20120;-68
2022/11/26 08:28:41;;;;;;;6.50;2.20;;;;;;;18.95;43.39;102777.84;4990672;28;20038;-70
2022/11/26 08:31:09;;;;;;;5.80;2.30;;;;;;;18.93;43.21;102772.66;4996155;28;20033;-72
2022/11/26 08:33:35;;;;;;;5.78;2.10;;;;;;;18.95;43.30;102778.69;4993365;28;20072;-72
2022/11/26 08:36:00;;;;;;;4.50;2.28;;;;;;;18.95;43.26;102776.06;4996955;28;20026;-71
2022/11/26 08:38:27;;;;;;;9.23;2.63;;;;;;;18.97;43.24;102782.09;4995042;28;20498;-70
2022/11/26 08:40:53;;;;;;;7.43;2.58;;;;;;;18.96;43.18;102787.47;4997455;28;20038;-72
2022/11/26 08:43:20;;;;;;;7.28;2.33;;;;;;;18.92;42.98;102781.50;5001899;28;20033;-72
2022/11/26 08:45:57;;;;;;;5.60;2.45;;;;;;;18.94;42.99;102787.56;4993893;28;20038;-71
2022/11/26 08:48:23;;;;;;;4.93;2.10;;;;;;;18.94;42.94;102784.06;4996641;28;20034;-70
2022/11/26 08:50:49;;;;;;;7.15;2.63;;;;;;;18.96;42.96;102788.34;4991259;28;20112;-70
2022/11/26 08:53:14;;;;;;;6.38;2.30;;;;;;;18.94;43.11;102789.34;5013335;28;20129;-72
2022/11/26 08:55:40;;;;;;;5.70;2.83;;;;;;;18.96;43.09;102785.69;4990621;28;20046;-71
2022/11/26 08:58:05;;;;;;;6.00;2.28;;;;;;;18.96;42.98;102782.19;5001827;28;20505;-72
2022/11/26 09:00:31;;;;;;;6.70;2.45;;;;;;;18.97;43.09;102786.53;4993389;28;20068;-74
2022/11/26 09:02:56;;;;;;;5.28;2.00;;;;;;;18.99;43.07;102793.47;4992713;28;20129;-73
2022/11/26 09:05:21;;;;;;;5.03;2.35;;;;;;;19.01;42.67;102791.59;5001934;28;20037;-75
2022/11/26 09:07:46;;;;;;;7.20;2.55;;;;;;;19.00;43.04;102786.38;4991825;28;20600;-73
2022/11/26 09:10:12;;;;;;;8.25;2.50;;;;;;;19.02;43.17;102801.19;4997835;28;20026;-74
2022/11/26 09:12:37;;;;;;;5.17;2.20;;;;;;;18.96;43.03;102798.03;4993357;28;20411;-71
2022/11/26 09:15:03;;;;;;;5.85;2.25;;;;;;;18.97;43.13;102802.41;4994323;28;20305;-72
2022/11/26 09:17:28;;;;;;;5.72;2.05;;;;;;;18.98;43.53;102810.25;4999477;28;20041;-68
2022/11/26 09:19:54;;;;;;;7.18;2.30;;;;;;;18.96;43.05;102804.19;5002333;28;20566;-72
2022/11/26 09:22:19;;;;;;;7.60;2.45;;;;;;;18.99;42.91;102803.16;4991542;28;20030;-71
2022/11/26 09:24:44;;;;;;;7.20;2.60;;;;;;;18.98;43.19;102806.75;4995234;28;20036;-73
2022/11/26 09:27:10;;;;;;;7.87;2.50;;;;;;;19.01;42.94;102811.88;5003375;28;20116;-75
2022/11/26 09:29:36;;;;;;;4.40;1.92;;;;;;;18.99;43.16;102811.97;4998961;28;20267;-71
2022/11/26 09:32:02;;;;;;;6.32;2.10;;;;;;;19.00;42.95;102826.00;4996398;28;20050;-74
2022/11/26 09:34:27;;;;;;;6.75;2.80;;;;;;;18.99;42.98;102827.81;4987314;28;20125;-72
2022/11/26 09:36:52;;;;;;;7.35;2.50;;;;;;;18.97;43.03;102823.53;4991205;28;20153;-72
2022/11/26 09:39:18;;;;;;;5.18;2.20;;;;;;;18.96;42.89;102832.38;5002019;28;20459;-71
2022/11/26 09:41:53;;;;;;;6.20;2.60;;;;;;;18.98;43.07;102839.31;4997124;28;20088;-73
2022/11/26 09:44:21;;;;;;;5.15;2.10;;;;;;;18.96;43.27;102835.91;4998597;28;20089;-72
2022/11/26 09:47:10;;;;;;;4.90;2.30;;;;;;;18.97;43.08;102821.75;4989629;28;20038;-74
2022/11/26 09:50:01;;;;;;;7.88;3.15;;;;;;;18.98;43.30;102823.44;4989800;28;20135;-73
2022/11/26 09:52:35;;;;;;;4.65;2.05;;;;;;;18.95;43.13;102820.97;4989551;28;20026;-72
2022/11/26 09:55:21;;;;;;;;;;;;;;;19.02;43.34;102824.13;4988886;28;20033;-71
2022/11/26 09:58:11;;;;;;;7.45;2.38;;;;;;;19.01;43.19;102822.44;4994485;28;19917;-71
2022/11/26 10:00:45;;;;;;;5.90;1.98;;;;;;;18.97;43.33;102810.31;4987482;28;20129;-69
2022/11/26 10:03:15;;;;;;;;;;;;;;;19.08;43.23;102822.97;4996665;28;20529;-70
2022/11/26 10:05:55;;;;;;;7.38;2.15;;;;;;;19.02;43.10;102821.50;4996758;28;20361;-69
2022/11/26 10:08:27;;;;;;;6.82;2.38;;;;;;;19.03;43.06;102825.84;4993563;28;20031;-71
2022/11/26 10:11:10;;;;;;;6.35;2.03;;;;;;;19.03;43.12;102831.13;4998806;28;20049;-72
2022/11/26 10:14:04;;;;;;;6.47;2.17;;;;;;;19.02;42.99;102832.06;4996969;28;20478;-70
2022/11/26 10:16:59;;;;;;;6.90;2.10;;;;;;;19.02;42.94;102832.91;5001592;28;20040;-67
2022/11/26 10:19:39;;;;;;;5.60;2.28;;;;;;;19.01;43.34;102827.72;4983511;28;20201;-71
2022/11/26 10:22:36;;;;;;;5.85;2.30;;;;;;;18.98;43.31;102825.25;4986141;28;20080;-69
2022/11/26 10:25:12;;;;;;;6.22;2.15;;;;;;;18.98;43.30;102823.44;4980564;28;20050;-69
2022/11/26 10:27:38;;;;;;;6.07;2.00;;;;;;;18.99;43.31;102825.16;4994802;28;20038;-70
2022/11/26 10:30:26;;;;;;;6.03;2.33;;;;;;;19.02;43.34;102824.97;4991405;28;20034;-72
2022/11/26 10:32:52;;;;;;;8.18;2.40;;;;;;;19.02;43.65;102819.69;4988723;28;20089;-72
2022/11/26 10:35:20;;;;;;;6.43;2.00;;;;;;;19.04;43.34;102822.25;4988779;28;20084;-71
2022/11/26 10:37:48;;;;;;;7.18;2.20;;;;;;;19.03;43.40;102810.84;4984833;28;20053;-70
2022/11/26 10:40:26;;;;;;;7.70;2.70;;;;;;;19.05;43.70;102805.47;4993832;28;20038;-71
2022/11/26 10:43:01;;;;;;;6.13;2.28;;;;;;;19.04;43.55;102801.13;4995114;28;20091;-70
2022/11/26 10:45:41;;;;;;;8.20;2.65;;;;;;;19.02;43.49;102798.56;4948315;28;20144;-71
2022/11/26 10:48:16;;;;;;;5.70;2.58;;;;;;;19.03;43.46;102800.28;4986720;28;20807;-74
2022/11/26 10:50:53;;;;;;;8.00;2.17;;;;;;;19.03;43.43;102791.50;4990688;28;20742;-71
2022/11/26 10:53:21;;;;;;;7.50;2.58;;;;;;;19.03;43.34;102788.84;4987919;28;20026;-70
2022/11/26 10:55:47;;;;;;;5.93;2.25;;;;;;;19.05;43.63;102802.00;4987690;28;20125;-69
2022/11/26 10:58:22;;;;;;;7.63;2.30;;;;;;;19.03;43.76;102794.13;4996900;28;20794;-69
2022/11/26 11:00:48;;;;;;;7.68;2.58;;;;;;;19.08;43.71;102794.75;4991384;28;20041;-71
2022/11/26 11:03:14;;;;;;;5.83;2.03;;;;;;;19.06;43.86;102791.34;4988134;28;20386;-70
2022/11/26 11:05:42;;;;;;;7.78;2.47;;;;;;;19.10;43.87;102789.38;4996302;28;20061;-72
2022/11/26 11:08:28;;;;;;;6.30;2.20;;;;;;;19.10;43.78;102782.28;4999608;28;20037;-68
2022/11/26 11:10:55;;;;;;;6.47;2.28;;;;;;;19.12;43.45;102785.72;4996359;28;20041;-69
2022/11/26 11:13:22;;;;;;;5.85;2.08;;;;;;;19.12;43.64;102783.06;4981787;28;20039;-69
2022/11/26 11:15:59;;;;;;;5.63;2.00;;;;;;;19.10;43.73;102778.78;5000821;28;20100;-68
2022/11/26 11:18:25;;;;;;;6.72;2.60;;;;;;;19.10;43.45;102789.38;4999762;28;20030;-68
2022/11/26 11:20:54;;;;;;;5.85;2.28;;;;;;;19.08;43.56;102784.16;4982193;28;20081;-68
2022/11/26 11:23:27;;;;;;;6.40;2.00;;;;;;;19.10;43.65;102794.66;4990981;28;20034;-69
2022/11/26 11:26:01;;;;;;;5.07;2.07;;;;;;;19.10;43.51;102792.00;4991790;28;20033;-68
2022/11/26 11:28:32;;;;;;;6.68;2.15;;;;;;;19.07;43.61;102795.66;4990771;28;20620;-73
2022/11/26 11:31:15;;;;;;;6.43;2.20;;;;;;;19.10;43.60;102795.50;5001767;28;20045;-68
2022/11/26 11:33:41;;;;;;;5.63;2.20;;;;;;;19.08;43.57;102794.75;5001068;28;20527;-69